createdAt,value
2018-11-20T00:02:20.215Z,75.30
2018-11-20T00:04:42.555Z,73.70
2018-11-20T00:07:21.018Z,75.70
2018-11-20T00:09:53.318Z,74.00
2018-11-20T00:12:16.958Z,73.90
2018-11-20T00:14:37.404Z,75.00
2018-11-20T00:17:00.261Z,75.00
2018-11-20T00:19:25.491Z,79.30
2018-11-20T00:21:54.939Z,75.00
2018-11-20T00:24:30.579Z,73.80
2018-11-20T00:26:52.852Z,74.00
2018-11-20T00:29:12.349Z,80.10
2018-11-20T00:31:29.361Z,75.30
2018-11-20T00:33:51.173Z,73.70
2018-11-20T00:36:17.817Z,75.10
2018-11-20T00:38:44.303Z,73.70
2018-11-20T00:40:58.032Z,75.40
2018-11-20T00:43:21.318Z,76.40
2018-11-20T00:46:00.324Z,75.00
2018-11-20T00:48:23.563Z,73.40
2018-11-20T00:50:45.556Z,79.60
2018-11-20T00:53:08.260Z,75.20
2018-11-20T00:56:11.986Z,72.90
2018-11-20T00:58:37.827Z,75.50
2018-11-20T01:00:58.540Z,75.40
2018-11-20T01:03:21.779Z,72.20
2018-11-20T01:05:43.949Z,73.80
2018-11-20T01:08:10.001Z,73.90
2018-11-20T01:10:31.883Z,75.20
2018-11-20T01:12:54.780Z,75.60
2018-11-20T01:15:09.793Z,73.50
2018-11-20T01:17:31.889Z,75.10
2018-11-20T01:19:56.166Z,73.40
2018-11-20T01:22:19.176Z,79.30
2018-11-20T01:24:40.606Z,74.10
2018-11-20T01:27:12.807Z,74.00
2018-11-20T01:29:34.840Z,73.50
2018-11-20T01:31:56.934Z,79.80
2018-11-20T01:34:08.827Z,73.20
2018-11-20T01:36:38.491Z,76.10
2018-11-20T01:38:51.292Z,74.10
2018-11-20T01:41:14.758Z,78.90
2018-11-20T01:43:50.291Z,76.70
2018-11-20T01:46:13.580Z,73.70
2018-11-20T01:48:35.827Z,74.50
2018-11-20T01:51:07.923Z,74.70
2018-11-20T01:53:40.175Z,74.40
2018-11-20T01:56:00.980Z,75.70
2018-11-20T01:58:22.895Z,75.30
2018-11-20T02:00:44.816Z,75.00
2018-11-20T02:03:08.474Z,80.60
2018-11-20T02:05:34.561Z,74.80
2018-11-20T02:08:01.324Z,74.80
2018-11-20T02:10:31.045Z,73.30
2018-11-20T02:12:57.241Z,74.90
2018-11-20T02:15:19.396Z,75.00
2018-11-20T02:17:55.590Z,73.00
2018-11-20T02:20:19.759Z,75.00
2018-11-20T02:22:59.075Z,74.60
2018-11-20T02:25:12.968Z,72.80
2018-11-20T02:27:51.171Z,75.30
2018-11-20T02:30:10.380Z,79.20
2018-11-20T02:32:28.683Z,73.40
2018-11-20T02:34:50.701Z,74.70
2018-11-20T02:37:17.921Z,73.10
2018-11-20T02:39:40.359Z,73.50
2018-11-20T02:42:07.211Z,73.90
2018-11-20T02:44:30.977Z,75.90
2018-11-20T02:46:52.635Z,74.70
2018-11-20T02:49:21.594Z,73.10
2018-11-20T02:51:47.870Z,79.50
2018-11-20T02:54:24.448Z,73.60
2018-11-20T02:56:43.626Z,72.30
2018-11-20T02:59:05.804Z,71.80
2018-11-20T03:02:17.017Z,73.00
2018-11-20T03:04:38.370Z,75.30
2018-11-20T03:06:49.981Z,72.90
2018-11-20T03:09:09.518Z,75.20
2018-11-20T03:11:38.121Z,73.30
2018-11-20T03:14:15.951Z,73.70
2018-11-20T03:16:53.825Z,73.40
2018-11-20T03:19:10.918Z,72.80
2018-11-20T03:21:48.546Z,73.60
2018-11-20T03:26:37.709Z,74.20
2018-11-20T03:29:24.746Z,73.70
2018-11-20T03:31:51.906Z,73.70
2018-11-20T03:34:14.782Z,75.90
2018-11-20T03:36:37.813Z,74.10
2018-11-20T03:38:56.828Z,75.90
2018-11-20T03:41:18.214Z,76.90
2018-11-20T03:43:41.525Z,75.40
2018-11-20T03:46:10.899Z,73.70
2018-11-20T03:48:33.394Z,73.50
2018-11-20T03:50:55.427Z,73.50
2018-11-20T03:53:24.161Z,78.60
2018-11-20T03:55:45.270Z,73.80
2018-11-20T03:58:06.339Z,74.50
2018-11-20T04:00:27.603Z,73.90
2018-11-20T04:03:00.753Z,73.70
2018-11-20T04:05:18.293Z,72.80
2018-11-20T04:07:39.320Z,73.60
2018-11-20T04:09:59.711Z,76.10
2018-11-20T04:12:24.764Z,74.00
2018-11-20T04:14:47.195Z,74.30
2018-11-20T04:17:18.980Z,75.70
2018-11-20T04:19:49.872Z,74.80
2018-11-20T04:22:27.721Z,80.40
2018-11-20T04:24:59.020Z,72.90
2018-11-20T04:27:21.459Z,77.40
2018-11-20T04:29:38.714Z,79.40
2018-11-20T04:32:02.275Z,74.60
2018-11-20T04:34:36.971Z,73.90
2018-11-20T04:37:07.827Z,73.00
2018-11-20T04:39:25.006Z,75.40
2018-11-20T04:41:37.424Z,73.90
2018-11-20T04:44:03.130Z,74.10
2018-11-20T04:46:24.356Z,74.40
2018-11-20T04:48:45.879Z,75.00
2018-11-20T04:51:08.009Z,73.30
2018-11-20T04:53:34.267Z,73.50
2018-11-20T04:56:09.279Z,75.80
2018-11-20T04:58:37.629Z,72.70
2018-11-20T05:03:50.632Z,75.30
2018-11-20T05:06:12.383Z,73.80
2018-11-20T05:08:26.554Z,76.40
2018-11-20T05:10:41.229Z,76.20
2018-11-20T05:13:22.401Z,76.80
2018-11-20T05:15:41.838Z,76.70
2018-11-20T05:18:06.877Z,77.10
2018-11-20T05:20:39.460Z,76.50
2018-11-20T05:23:04.585Z,75.00
2018-11-20T05:25:32.914Z,75.70
2018-11-20T05:28:01.122Z,74.40
2018-11-20T05:30:23.557Z,79.00
2018-11-20T05:32:52.047Z,77.80
2018-11-20T05:35:06.597Z,82.10
2018-11-20T05:37:25.038Z,75.40
2018-11-20T05:39:47.514Z,73.70
2018-11-20T05:42:00.293Z,73.80
2018-11-20T05:44:21.410Z,74.20
2018-11-20T05:46:42.826Z,76.90
2018-11-20T05:49:11.151Z,75.90
2018-11-20T05:51:37.009Z,76.10
2018-11-20T05:54:14.857Z,74.10
2018-11-20T05:56:40.506Z,76.10
2018-11-20T05:58:53.749Z,75.60
2018-11-20T06:01:15.538Z,81.40
2018-11-20T06:03:38.845Z,74.40
2018-11-20T06:05:55.913Z,76.10
2018-11-20T06:08:15.128Z,74.10
2018-11-20T06:10:36.016Z,74.20
2018-11-20T06:12:58.470Z,74.50
2018-11-20T06:15:19.738Z,74.70
2018-11-20T06:17:40.768Z,80.30
2018-11-20T06:20:18.390Z,76.00
2018-11-20T06:22:43.923Z,77.40
2018-11-20T06:24:59.162Z,74.50
2018-11-20T06:27:36.969Z,77.70
2018-11-20T06:30:02.630Z,80.50
2018-11-20T06:32:30.859Z,74.50
2018-11-20T06:34:40.934Z,78.60
2018-11-20T06:37:12.859Z,76.40
2018-11-20T06:39:44.434Z,74.50
2018-11-20T06:42:25.686Z,74.60
2018-11-20T06:44:53.912Z,75.30
2018-11-20T06:47:15.199Z,74.60
2018-11-20T06:49:24.678Z,74.60
2018-11-20T06:51:50.089Z,76.40
2018-11-20T06:54:24.383Z,74.70
2018-11-20T06:56:59.022Z,74.70
2018-11-20T07:01:41.131Z,76.50
2018-11-20T07:04:15.720Z,76.80
2018-11-20T07:06:51.556Z,75.10
2018-11-20T07:09:20.060Z,77.30
2018-11-20T07:11:36.970Z,74.90
2018-11-20T07:14:23.301Z,75.00
2018-11-20T07:16:55.635Z,82.10
2018-11-20T07:19:18.069Z,75.10
2018-11-20T07:21:39.477Z,74.80
2018-11-20T07:24:09.236Z,74.70
2018-11-20T07:26:23.775Z,74.80
2018-11-20T07:28:54.808Z,80.50
2018-11-20T07:31:19.983Z,74.90
2018-11-20T07:33:50.929Z,75.30
2018-11-20T07:36:21.886Z,75.30
2018-11-20T07:38:43.056Z,76.00
2018-11-20T07:41:05.243Z,76.20
2018-11-20T07:43:26.408Z,75.90
2018-11-20T07:45:45.809Z,74.40
2018-11-20T07:48:07.166Z,74.30
2018-11-20T07:50:34.911Z,74.00
2018-11-20T07:52:56.658Z,74.40
2018-11-20T07:55:14.627Z,76.90
2018-11-20T07:57:27.169Z,76.40
2018-11-20T07:59:50.450Z,77.60
2018-11-20T08:02:02.625Z,74.60
2018-11-20T08:04:24.413Z,73.90
2018-11-20T08:06:54.533Z,74.10
2018-11-20T08:09:09.030Z,74.10
2018-11-20T08:11:44.140Z,74.20
2018-11-20T08:13:57.076Z,75.30
2018-11-20T08:16:08.834Z,77.50
2018-11-20T08:18:22.218Z,73.30
2018-11-20T08:20:43.977Z,73.50
2018-11-20T08:23:09.225Z,75.20
2018-11-20T08:25:31.219Z,73.30
2018-11-20T08:27:57.440Z,73.20
2018-11-20T08:30:22.755Z,73.30
2018-11-20T08:32:50.467Z,75.00
2018-11-20T08:35:22.595Z,72.60
2018-11-20T08:37:50.718Z,74.50
2018-11-20T08:40:21.974Z,73.00
2018-11-20T08:42:43.160Z,72.90
2018-11-20T08:45:11.903Z,72.90
2018-11-20T08:47:37.634Z,72.80
2018-11-20T08:50:00.107Z,73.20
2018-11-20T08:52:25.341Z,74.40
2018-11-20T08:54:42.521Z,73.00
2018-11-20T08:57:03.901Z,77.90
2018-11-20T08:59:42.091Z,74.20
2018-11-20T09:02:04.719Z,72.40
2018-11-20T09:04:30.272Z,72.70
2018-11-20T09:07:02.475Z,72.20
2018-11-20T09:09:33.857Z,72.40
2018-11-20T09:11:54.878Z,72.20
2018-11-20T09:14:23.039Z,73.70
2018-11-20T09:16:44.121Z,72.90
2018-11-20T09:19:09.784Z,74.10
2018-11-20T09:21:30.138Z,73.00
2018-11-20T09:24:10.785Z,71.40
2018-11-20T09:26:36.215Z,72.80
2018-11-20T09:28:57.353Z,73.10
2018-11-20T09:31:18.630Z,71.50
2018-11-20T09:33:46.878Z,75.60
2018-11-20T09:36:09.376Z,73.30
2018-11-20T09:38:30.718Z,72.30
2018-11-20T09:41:00.101Z,72.90
2018-11-20T09:43:25.497Z,71.40
2018-11-20T09:46:05.880Z,71.50
2018-11-20T09:48:27.118Z,71.40
2018-11-20T09:51:07.925Z,77.80
2018-11-20T09:53:40.260Z,72.80
2018-11-20T09:56:02.246Z,71.20
2018-11-20T09:58:21.006Z,70.50
2018-11-20T10:00:52.795Z,71.30
2018-11-20T10:03:15.273Z,70.20
2018-11-20T10:05:56.515Z,70.60
2018-11-20T10:08:18.640Z,71.30
2018-11-20T10:10:39.796Z,70.40
2018-11-20T10:13:01.878Z,70.00
2018-11-20T10:15:15.295Z,71.10
2018-11-20T10:17:36.742Z,70.80
2018-11-20T10:19:57.809Z,69.00
2018-11-20T10:22:19.192Z,70.60
2018-11-20T10:24:45.067Z,69.40
2018-11-20T10:27:13.824Z,70.20
2018-11-20T10:29:47.077Z,69.20
2018-11-20T10:32:18.653Z,73.20
2018-11-20T10:34:44.279Z,69.50
2018-11-20T10:36:59.382Z,68.40
2018-11-20T10:39:11.868Z,69.10
2018-11-20T10:41:34.093Z,68.80
2018-11-20T10:43:55.870Z,68.40
2018-11-20T10:46:18.185Z,69.10
2018-11-20T10:48:49.537Z,68.10
2018-11-20T10:51:11.139Z,70.50
2018-11-20T10:53:33.129Z,67.60
2018-11-20T10:55:54.466Z,68.00
2018-11-20T10:58:16.386Z,69.60
2018-11-20T11:00:37.651Z,70.20
2018-11-20T11:02:58.919Z,67.40
2018-11-20T11:05:19.740Z,69.90
2018-11-20T11:07:48.597Z,68.70
2018-11-20T11:10:03.694Z,69.40
2018-11-20T11:12:26.127Z,68.80
2018-11-20T11:14:47.268Z,68.30
2018-11-20T11:17:09.907Z,67.70
2018-11-20T11:19:32.404Z,68.00
2018-11-20T11:22:00.522Z,68.90
2018-11-20T11:24:21.794Z,67.70
2018-11-20T11:27:02.612Z,69.40
2018-11-20T11:29:23.608Z,68.80
2018-11-20T11:31:58.161Z,68.00
2018-11-20T11:34:23.258Z,66.90
2018-11-20T11:36:35.345Z,67.70
2018-11-20T11:39:13.509Z,67.90
2018-11-20T11:41:51.692Z,68.10
2018-11-20T11:44:04.865Z,67.20
2018-11-20T11:46:36.208Z,72.30
2018-11-20T11:48:59.011Z,70.70
2018-11-20T11:51:17.143Z,69.60
2018-11-20T11:53:43.386Z,69.30
2018-11-20T11:56:12.151Z,69.70
2018-11-20T11:58:38.339Z,69.40
2018-11-20T12:01:00.539Z,69.10
2018-11-20T12:06:04.724Z,67.20
2018-11-20T12:08:27.684Z,67.50
2018-11-20T12:10:42.164Z,67.80
2018-11-20T12:15:39.080Z,68.10
2018-11-20T12:18:00.859Z,67.50
2018-11-20T12:20:24.855Z,67.30
2018-11-20T12:22:39.791Z,73.30
2018-11-20T12:24:55.443Z,68.60
2018-11-20T12:27:32.987Z,69.10
2018-11-20T12:29:48.009Z,71.60
2018-11-20T12:32:10.997Z,69.30
2018-11-20T12:34:32.569Z,71.00
2018-11-20T12:36:54.206Z,70.20
2018-11-20T12:39:10.419Z,70.10
2018-11-20T12:41:46.321Z,70.20
2018-11-20T12:44:06.431Z,70.40
2018-11-20T12:46:26.428Z,72.40
2018-11-20T12:48:47.608Z,79.70
2018-11-20T12:51:09.144Z,71.50
2018-11-20T12:53:23.401Z,73.40
2018-11-20T12:55:44.924Z,72.30
2018-11-20T12:58:05.942Z,72.10
2018-11-20T13:00:26.869Z,71.80
2018-11-20T13:02:49.297Z,71.80
2018-11-20T13:05:10.704Z,71.20
2018-11-20T13:07:36.025Z,73.50
2018-11-20T13:09:54.667Z,78.30
2018-11-20T13:12:33.660Z,77.90
2018-11-20T13:14:56.611Z,72.00
2018-11-20T13:17:17.660Z,72.80
2018-11-20T13:19:49.200Z,72.80
2018-11-20T13:22:12.181Z,74.90
2018-11-20T13:24:27.000Z,74.10
2018-11-20T13:27:01.676Z,72.60
2018-11-20T13:29:33.400Z,72.50
2018-11-20T13:31:56.564Z,72.40
2018-11-20T13:34:07.830Z,76.80
2018-11-20T13:36:28.316Z,73.30
2018-11-20T13:39:02.964Z,72.20
2018-11-20T13:41:55.053Z,71.50
2018-11-20T13:44:27.015Z,71.00
2018-11-20T13:46:58.456Z,70.40
2018-11-20T13:49:19.810Z,69.10
2018-11-20T13:51:51.835Z,69.60
2018-11-20T13:54:12.301Z,69.70
2018-11-20T13:56:48.568Z,74.30
2018-11-20T13:59:20.012Z,68.70
2018-11-20T14:01:51.233Z,69.40
2018-11-20T14:04:12.435Z,69.60
2018-11-20T14:06:28.530Z,69.50
2018-11-20T14:08:46.863Z,69.60
2018-11-20T14:11:27.849Z,70.30
2018-11-20T14:13:59.163Z,69.70
2018-11-20T14:16:24.249Z,70.30
2018-11-20T14:18:46.328Z,71.50
2018-11-20T14:21:15.408Z,71.10
2018-11-20T14:23:36.552Z,70.90
2018-11-20T14:25:59.006Z,71.00
2018-11-20T14:28:21.523Z,70.90
2018-11-20T14:30:55.842Z,71.40
2018-11-20T14:33:16.224Z,72.10
2018-11-20T14:35:53.649Z,72.40
2018-11-20T14:38:19.074Z,72.80
2018-11-20T14:40:42.241Z,73.50
2018-11-20T14:43:03.711Z,73.50
2018-11-20T14:45:35.321Z,73.70
2018-11-20T14:47:56.480Z,76.20
2018-11-20T14:50:19.176Z,75.00
2018-11-20T14:52:47.519Z,80.00
2018-11-20T14:55:09.744Z,75.40
2018-11-20T14:57:47.570Z,76.00
2018-11-20T15:00:12.544Z,76.30
2018-11-20T15:02:36.166Z,78.20
2018-11-20T15:05:04.593Z,79.30
2018-11-20T15:07:16.563Z,79.40
2018-11-20T15:09:35.076Z,78.00
2018-11-20T15:11:58.340Z,76.90
2018-11-20T15:14:20.775Z,80.20
2018-11-20T15:16:59.504Z,80.70
2018-11-20T15:19:17.420Z,79.30
2018-11-20T15:21:52.017Z,81.00
2018-11-20T15:24:23.043Z,81.60
2018-11-20T15:27:00.378Z,79.90
2018-11-20T15:31:42.071Z,80.60
2018-11-20T15:34:04.534Z,81.30
2018-11-20T15:36:42.108Z,82.10
2018-11-20T15:39:03.198Z,81.80
2018-11-20T15:41:24.751Z,81.80
2018-11-20T15:43:47.379Z,82.10
2018-11-20T15:46:19.720Z,81.20
2018-11-20T15:48:40.963Z,82.60
2018-11-20T15:51:12.338Z,83.70
2018-11-20T15:53:53.102Z,83.20
2018-11-20T15:56:18.173Z,85.30
2018-11-20T15:58:49.938Z,85.10
2018-11-20T16:01:22.932Z,89.70
2018-11-20T16:03:47.966Z,85.00
2018-11-20T16:06:13.992Z,83.90
2018-11-20T16:08:35.509Z,84.40
2018-11-20T16:10:57.509Z,84.60
2018-11-20T16:13:35.194Z,84.70
2018-11-20T16:18:24.342Z,88.70
2018-11-20T16:20:47.286Z,87.00
2018-11-20T16:23:13.520Z,85.60
2018-11-20T16:25:34.853Z,87.00
2018-11-20T16:27:53.880Z,85.70
2018-11-20T16:30:16.382Z,87.50
2018-11-20T16:32:45.202Z,85.90
2018-11-20T16:35:13.800Z,87.50
2018-11-20T16:37:50.402Z,88.10
2018-11-20T16:40:12.062Z,86.90
2018-11-20T16:42:34.583Z,87.20
2018-11-20T16:45:09.476Z,85.80
2018-11-20T16:47:32.096Z,87.30
2018-11-20T16:49:53.145Z,87.90
2018-11-20T16:54:42.319Z,86.10
2018-11-20T16:57:07.925Z,86.90
2018-11-20T16:59:39.190Z,87.00
2018-11-20T17:01:57.331Z,89.00
2018-11-20T17:04:18.826Z,86.90
2018-11-20T17:06:40.917Z,88.90
2018-11-20T17:09:04.693Z,88.70
2018-11-20T17:11:31.908Z,88.70
2018-11-20T17:13:57.094Z,87.10
2018-11-20T17:16:18.254Z,87.00
2018-11-20T17:18:44.951Z,87.10
2018-11-20T17:21:08.088Z,87.10
2018-11-20T17:23:30.670Z,87.30
2018-11-20T17:25:59.200Z,87.10
2018-11-20T17:28:21.659Z,87.20
2018-11-20T17:30:47.409Z,88.00
2018-11-20T17:33:08.944Z,87.60
2018-11-20T17:35:27.695Z,86.80
2018-11-20T17:37:53.432Z,87.40
2018-11-20T17:40:20.814Z,87.40
2018-11-20T17:42:49.952Z,87.50
2018-11-20T17:45:30.903Z,87.70
2018-11-20T17:48:08.926Z,87.00
2018-11-20T17:50:31.481Z,88.00
2018-11-20T17:52:52.242Z,88.70
2018-11-20T17:55:16.187Z,88.40
2018-11-20T17:57:45.112Z,90.10
2018-11-20T18:00:06.775Z,89.10
2018-11-20T18:02:35.441Z,89.50
2018-11-20T18:04:56.400Z,90.00
2018-11-20T18:07:19.131Z,90.30
2018-11-20T18:09:42.149Z,88.30
2018-11-20T18:11:59.987Z,89.00
2018-11-20T18:14:35.039Z,88.60
2018-11-20T18:16:59.440Z,89.70
2018-11-20T18:19:34.483Z,87.50
2018-11-20T18:21:57.281Z,92.10
2018-11-20T18:24:23.433Z,92.00
2018-11-20T18:26:37.454Z,88.00
2018-11-20T18:29:08.899Z,88.00
2018-11-20T18:31:35.146Z,92.00
2018-11-20T18:33:56.873Z,89.60
2018-11-20T18:36:28.682Z,88.10
2018-11-20T18:38:50.025Z,91.50
2018-11-20T18:41:11.458Z,88.80
2018-11-20T18:43:32.510Z,89.60
2018-11-20T18:46:04.236Z,89.40
2018-11-20T18:48:26.666Z,88.20
2018-11-20T18:50:48.325Z,88.40
2018-11-20T18:53:09.901Z,88.40
2018-11-20T18:55:35.212Z,89.70
2018-11-20T18:57:56.470Z,92.60
2018-11-20T19:00:18.670Z,87.90
2018-11-20T19:02:34.959Z,88.20
2018-11-20T19:05:00.507Z,88.00
2018-11-20T19:07:26.342Z,88.10
2018-11-20T19:10:04.211Z,88.30
2018-11-20T19:12:28.801Z,88.50
2018-11-20T19:15:03.348Z,90.00
2018-11-20T19:17:27.364Z,88.20
2018-11-20T19:20:02.268Z,89.30
2018-11-20T19:22:26.897Z,89.50
2018-11-20T19:27:25.668Z,87.00
2018-11-20T19:30:03.477Z,87.80
2018-11-20T19:32:39.385Z,87.70
2018-11-20T19:35:10.712Z,89.20
2018-11-20T19:37:32.079Z,88.10
2018-11-20T19:39:55.489Z,88.80
2018-11-20T19:42:21.140Z,89.60
2018-11-20T19:47:01.843Z,89.50
2018-11-20T19:49:43.060Z,89.40
2018-11-20T19:52:09.463Z,88.90
2018-11-20T19:54:32.497Z,89.80
2018-11-20T19:56:54.184Z,89.10
2018-11-20T19:59:16.593Z,91.30
2018-11-20T20:01:39.446Z,89.10
2018-11-20T20:04:02.512Z,89.20
2018-11-20T20:06:25.473Z,90.20
2018-11-20T20:08:48.595Z,89.30
2018-11-20T20:11:23.637Z,88.40
2018-11-20T20:14:02.225Z,88.80
2018-11-20T20:16:27.711Z,86.30
2018-11-20T20:19:10.356Z,89.20
2018-11-20T20:21:36.300Z,88.00
2018-11-20T20:24:04.711Z,86.30
2018-11-20T20:26:17.334Z,86.60
2018-11-20T20:28:40.496Z,88.00
2018-11-20T20:31:03.565Z,88.00
2018-11-20T20:33:22.785Z,87.10
2018-11-20T20:35:58.119Z,86.60
2018-11-20T20:38:39.018Z,85.90
2018-11-20T20:41:02.920Z,89.00
2018-11-20T20:43:24.050Z,87.20
2018-11-20T20:45:55.591Z,89.40
2018-11-20T20:48:13.497Z,89.00
2018-11-20T20:50:35.095Z,88.60
2018-11-20T20:53:16.500Z,88.50
2018-11-20T20:55:48.178Z,89.20
2018-11-20T20:57:58.152Z,91.30
2018-11-20T21:00:23.908Z,90.20
2018-11-20T21:02:45.261Z,88.70
2018-11-20T21:05:10.587Z,90.40
2018-11-20T21:07:43.200Z,87.30
2018-11-20T21:10:10.372Z,89.10
2018-11-20T21:12:31.557Z,87.10
2018-11-20T21:14:53.346Z,88.20
2018-11-20T21:17:30.716Z,87.30
2018-11-20T21:19:51.919Z,90.50
2018-11-20T21:22:13.381Z,88.00
2018-11-20T21:24:41.844Z,88.60
2018-11-20T21:27:07.142Z,88.30
2018-11-20T21:29:37.578Z,87.80
2018-11-20T21:31:51.497Z,86.80
2018-11-20T21:34:26.243Z,87.50
2018-11-20T21:36:43.094Z,90.90
2018-11-20T21:39:03.913Z,87.10
2018-11-20T21:41:29.314Z,89.60
2018-11-20T21:46:26.186Z,90.30
2018-11-20T21:48:47.271Z,90.10
2018-11-20T21:51:12.651Z,89.30
2018-11-20T21:53:35.084Z,90.10
2018-11-20T21:55:50.714Z,90.90
2018-11-20T21:58:12.274Z,90.60
2018-11-20T22:00:28.689Z,90.20
2018-11-20T22:05:42.835Z,93.10
2018-11-20T22:07:57.839Z,90.20
2018-11-20T22:10:20.748Z,90.20
2018-11-20T22:12:52.359Z,90.30
2018-11-20T22:15:13.904Z,89.20
2018-11-20T22:17:45.586Z,89.30
2018-11-20T22:20:17.759Z,90.40
2018-11-20T22:22:38.840Z,90.20
2018-11-20T22:25:13.179Z,89.20
2018-11-20T22:27:44.367Z,90.20
2018-11-20T22:29:59.231Z,89.30
2018-11-20T22:32:22.062Z,90.30
2018-11-20T22:34:47.742Z,89.10
2018-11-20T22:37:10.212Z,89.00
2018-11-20T22:39:29.495Z,90.00
2018-11-20T22:44:12.912Z,87.40
2018-11-20T22:46:34.126Z,89.00
2018-11-20T22:48:59.460Z,88.60
2018-11-20T22:51:36.904Z,88.70
2018-11-20T22:54:05.220Z,88.90
2018-11-20T22:56:45.899Z,90.10
2018-11-20T22:59:08.333Z,88.80
2018-11-20T23:01:22.132Z,88.00
2018-11-20T23:03:43.425Z,86.50
2018-11-20T23:05:57.143Z,89.20
2018-11-20T23:08:01.469Z,88.10
2018-11-20T23:10:04.981Z,90.10
2018-11-20T23:12:08.264Z,88.10
2018-11-20T23:14:12.469Z,88.40
2018-11-20T23:16:15.723Z,88.90
2018-11-20T23:18:18.986Z,91.50
2018-11-20T23:20:23.220Z,88.40
2018-11-20T23:22:26.610Z,88.70
2018-11-20T23:24:30.085Z,89.10
2018-11-20T23:26:33.491Z,88.50
2018-11-20T23:28:36.782Z,88.60
2018-11-20T23:30:40.054Z,88.80
2018-11-20T23:32:43.862Z,92.20
2018-11-20T23:34:47.136Z,90.20
2018-11-20T23:36:50.509Z,90.60
2018-11-20T23:38:54.366Z,90.20
2018-11-20T23:40:57.796Z,90.30
2018-11-20T23:43:01.292Z,89.80
2018-11-20T23:45:06.567Z,89.90
2018-11-20T23:47:09.850Z,89.80
2018-11-20T23:49:15.430Z,90.00
2018-11-20T23:51:16.528Z,90.20
2018-11-20T23:53:19.804Z,90.30
2018-11-20T23:55:23.741Z,90.30
2018-11-20T23:57:27.612Z,91.10
2018-11-20T23:59:30.895Z,90.90
